M/V Le Conte — WZE4270 — position and weather

sailwx.info

Track history (hours):
 
Tides and Currents Weather Stations Pressure Air Temp Water Temp Dewpoint Dewpoint Depression Visibility Wind Speed Wind Dir Waves Ship Positions

M/V Le Conte

Owner: ALASKA MARINE HIGHWAY SYSTEM, JUNEAU, AK. More information available from US FCC via Universal Licensing System and Coast Guard Vessel Documentation Center.

Last reported at 2019-Jul-19 23:48 UTC. Time now 2019-Jul-20 13:51 UTC.
Position N 58°19' W 135°25'.

Type: Passenger vessel. MMSI: 338761000.

Date/timePositionNaut miles runAvg speedWind from/ knotsBaromVisibWave heightAir tempDewpointWater temp
2019-Jul-19 23:48N 58°19' W 135°25'415.0
2019-Jul-19 23:30N 58°22' W 135°31'713.9
2019-Jul-19 23:00N 58°23' W 135°43'0 0.4
2019-Jul-19 22:28N 58°23' W 135°44'0 0.0
2019-Jul-19 21:58N 58°23' W 135°44'4 8.2
2019-Jul-19 21:29N 58°19' W 135°43'14 0.3
2019-Jul-18 00:56N 58°09' W 135°27'2 1.1
2019-Jul-17 23:07N 58°11' W 135°28'214.3
2019-Jul-17 22:57N 58°12' W 135°30'715.1
2019-Jul-17 22:30N 58°17' W 135°40'713.1
2019-Jul-17 22:00N 58°23' W 135°44'0 0.4
2019-Jul-17 21:30N 58°23' W 135°44'0 0.0
2019-Jul-17 21:00N 58°23' W 135°44'1 2.4
2019-Jul-17 20:30N 58°22' W 135°45'813.9
2019-Jul-17 19:54N 58°16' W 135°34'3 0.1
2019-Jul-15 23:04N 58°15' W 135°28'215.1
2019-Jul-15 22:58N 58°15' W 135°31'614.1
2019-Jul-15 22:30N 58°19' W 135°42'5 8.6
2019-Jul-15 21:57N 58°23' W 135°44'0 0.0
2019-Jul-15 21:30N 58°23' W 135°44'0 0.0
2019-Jul-15 21:00N 58°23' W 135°44'3 6.7
2019-Jul-15 20:30N 58°20' W 135°43'915.9
2019-Jul-15 19:57N 58°14' W 135°32'6 0.3
2019-Jul-14 23:38N 58°09' W 135°22'3 1.7
2019-Jul-14 21:46N 58°09' W 135°28'413.9
2019-Jul-14 21:29N 58°12' W 135°30'715.2
2019-Jul-14 21:00N 58°18' W 135°40'612.3
2019-Jul-14 20:30N 58°23' W 135°44'0 0.0
2019-Jul-14 19:59N 58°23' W 135°44'0 0.0
2019-Jul-14 19:29N 58°23' W 135°44'0 0.0
2019-Jul-14 19:00N 58°23' W 135°44'5 9.1
2019-Jul-14 18:30N 58°19' W 135°42'815.1
2019-Jul-14 18:00N 58°15' W 135°29'7 0.2
2019-Jul-13 00:43N 58°09' W 135°21'414.5
2019-Jul-13 00:28N 58°09' W 135°28'2 0.9
2019-Jul-12 22:37N 58°10' W 135°28'214.7
2019-Jul-12 22:30N 58°12' W 135°29'715.3
2019-Jul-12 22:00N 58°17' W 135°40'713.2
2019-Jul-12 21:30N 58°23' W 135°44'0 0.2
2019-Jul-12 21:00N 58°23' W 135°44'0 0.0
2019-Jul-12 20:30N 58°23' W 135°44'0 0.6
2019-Jul-12 20:00N 58°23' W 135°44'713.2
2019-Jul-12 19:29N 58°17' W 135°38'8 0.2
2019-Jul-11 01:01N 58°14' W 135°25'116.3
2019-Jul-11 00:59N 58°14' W 135°26'816.1
2019-Jul-11 00:30N 58°17' W 135°39'713.2
2019-Jul-11 00:00N 58°23' W 135°44'0 0.0
2019-Jul-10 23:20N 58°23' W 135°44'0 0.0
2019-Jul-10 23:00N 58°23' W 135°44'5 9.8
2019-Jul-10 22:30N 58°19' W 135°42'815.1
2019-Jul-10 21:59N 58°13' W 135°31'  
Track history (hours):
 
Tides and Currents Weather Stations Pressure Air Temp Water Temp Dewpoint Dewpoint Depression Visibility Wind Speed Wind Dir Waves Ship Positions

M/V Le Conte

Owner: ALASKA MARINE HIGHWAY SYSTEM, JUNEAU, AK. More information available from US FCC via Universal Licensing System and Coast Guard Vessel Documentation Center.

Last reported at 2019-Jul-19 23:48 UTC. Time now 2019-Jul-20 13:51 UTC.
Position N 58°19' W 135°25'.

Type: Passenger vessel. MMSI: 338761000.

Date/timePositionNaut miles runAvg speedWind from/ knotsBaromVisibWave heightAir tempDewpointWater temp
2019-Jul-19 23:48N 58°19' W 135°25'415.0
2019-Jul-19 23:30N 58°22' W 135°31'713.9
2019-Jul-19 23:00N 58°23' W 135°43'0 0.4
2019-Jul-19 22:28N 58°23' W 135°44'0 0.0
2019-Jul-19 21:58N 58°23' W 135°44'4 8.2
2019-Jul-19 21:29N 58°19' W 135°43'14 0.3
2019-Jul-18 00:56N 58°09' W 135°27'2 1.1
2019-Jul-17 23:07N 58°11' W 135°28'214.3
2019-Jul-17 22:57N 58°12' W 135°30'715.1
2019-Jul-17 22:30N 58°17' W 135°40'713.1
2019-Jul-17 22:00N 58°23' W 135°44'0 0.4
2019-Jul-17 21:30N 58°23' W 135°44'0 0.0
2019-Jul-17 21:00N 58°23' W 135°44'1 2.4
2019-Jul-17 20:30N 58°22' W 135°45'813.9
2019-Jul-17 19:54N 58°16' W 135°34'3 0.1
2019-Jul-15 23:04N 58°15' W 135°28'215.1
2019-Jul-15 22:58N 58°15' W 135°31'614.1
2019-Jul-15 22:30N 58°19' W 135°42'5 8.6
2019-Jul-15 21:57N 58°23' W 135°44'0 0.0
2019-Jul-15 21:30N 58°23' W 135°44'0 0.0
2019-Jul-15 21:00N 58°23' W 135°44'3 6.7
2019-Jul-15 20:30N 58°20' W 135°43'915.9
2019-Jul-15 19:57N 58°14' W 135°32'6 0.3
2019-Jul-14 23:38N 58°09' W 135°22'3 1.7
2019-Jul-14 21:46N 58°09' W 135°28'413.9
2019-Jul-14 21:29N 58°12' W 135°30'715.2
2019-Jul-14 21:00N 58°18' W 135°40'612.3
2019-Jul-14 20:30N 58°23' W 135°44'0 0.0
2019-Jul-14 19:59N 58°23' W 135°44'0 0.0
2019-Jul-14 19:29N 58°23' W 135°44'0 0.0
2019-Jul-14 19:00N 58°23' W 135°44'5 9.1
2019-Jul-14 18:30N 58°19' W 135°42'815.1
2019-Jul-14 18:00N 58°15' W 135°29'7 0.2
2019-Jul-13 00:43N 58°09' W 135°21'414.5
2019-Jul-13 00:28N 58°09' W 135°28'2 0.9
2019-Jul-12 22:37N 58°10' W 135°28'214.7
2019-Jul-12 22:30N 58°12' W 135°29'715.3
2019-Jul-12 22:00N 58°17' W 135°40'713.2
2019-Jul-12 21:30N 58°23' W 135°44'0 0.2
2019-Jul-12 21:00N 58°23' W 135°44'0 0.0
2019-Jul-12 20:30N 58°23' W 135°44'0 0.6
2019-Jul-12 20:00N 58°23' W 135°44'713.2
2019-Jul-12 19:29N 58°17' W 135°38'8 0.2
2019-Jul-11 01:01N 58°14' W 135°25'116.3
2019-Jul-11 00:59N 58°14' W 135°26'816.1
2019-Jul-11 00:30N 58°17' W 135°39'713.2
2019-Jul-11 00:00N 58°23' W 135°44'0 0.0
2019-Jul-10 23:20N 58°23' W 135°44'0 0.0
2019-Jul-10 23:00N 58°23' W 135°44'5 9.8
2019-Jul-10 22:30N 58°19' W 135°42'815.1
2019-Jul-10 21:59N 58°13' W 135°31'  

Dump ship's entire track history